Time;durP1;ratioP1;P1;durP2;ratioP2;P2;SDS_P1;SDS_P2;PMS_P1;PMS_P2;Temp;Humidity;BMP_temperature;BMP_pressure;BME280_temperature;BME280_humidity;BME280_pressure;Samples;Min_cycle;Max_cycle;Signal;HPM_P1;HPM_P2
2024/01/18 00:01:51;;;;;;;23.17;15.77;;;-0.40;99.90;;;;;;5094447;28;20249;-75
2024/01/18 00:04:17;;;;;;;26.27;16.87;;;-0.40;99.90;;;;;;5093019;28;20253;-77
2024/01/18 00:06:43;;;;;;;24.00;17.83;;;-0.40;99.90;;;;;;5093000;28;20642;-76
2024/01/18 00:09:08;;;;;;;24.03;16.47;;;-0.40;99.90;;;;;;5092844;28;20207;-76
2024/01/18 00:11:34;;;;;;;26.83;16.83;;;-0.40;99.90;;;;;;5094458;28;20257;-76
2024/01/18 00:14:00;;;;;;;25.10;16.40;;;-0.40;99.90;;;;;;5092904;28;20182;-77
2024/01/18 00:16:26;;;;;;;25.83;16.60;;;-0.40;99.90;;;;;;5094108;28;20223;-75
2024/01/18 00:18:51;;;;;;;27.37;17.43;;;-0.40;99.90;;;;;;5092693;28;20228;-76
2024/01/18 00:21:17;;;;;;;24.10;16.57;;;-0.40;99.90;;;;;;5092587;28;20205;-75
2024/01/18 00:23:42;;;;;;;25.90;16.33;;;-0.50;99.90;;;;;;5092633;28;20336;-76
2024/01/18 00:26:08;;;;;;;26.57;16.33;;;-0.50;99.90;;;;;;5093314;28;20264;-76
2024/01/18 00:28:34;;;;;;;20.63;15.77;;;-0.50;99.90;;;;;;5092574;28;20200;-75
2024/01/18 00:30:59;;;;;;;23.97;16.10;;;-0.40;99.90;;;;;;5093901;28;20170;-77
2024/01/18 00:33:25;;;;;;;25.63;17.83;;;-0.40;99.90;;;;;;5092324;28;20201;-76
2024/01/18 00:35:51;;;;;;;24.80;17.13;;;-0.40;99.90;;;;;;5094214;28;20205;-77
2024/01/18 00:38:16;;;;;;;26.97;16.33;;;-0.40;99.90;;;;;;5092239;28;20208;-75
2024/01/18 00:40:42;;;;;;;23.43;16.87;;;-0.40;99.90;;;;;;5092399;28;20181;-76
2024/01/18 00:43:07;;;;;;;23.93;17.07;;;-0.40;99.90;;;;;;5093734;28;20185;-77
2024/01/18 00:45:33;;;;;;;27.43;18.00;;;-0.50;99.90;;;;;;5092075;28;20176;-76
2024/01/18 00:47:59;;;;;;;28.73;17.10;;;-0.50;99.90;;;;;;5092041;28;20224;-77
2024/01/18 00:50:24;;;;;;;26.57;16.53;;;-0.50;99.90;;;;;;5093411;28;20177;-76
2024/01/18 00:52:49;;;;;;;31.63;17.90;;;-0.50;99.90;;;;;;5093491;28;20174;-76
2024/01/18 00:55:15;;;;;;;25.00;16.47;;;-0.40;99.90;;;;;;5093440;28;20197;-77
2024/01/18 00:57:41;;;;;;;27.13;16.90;;;-0.50;99.90;;;;;;5092574;28;20200;-76
2024/01/18 01:00:08;;;;;;;28.70;17.60;;;-0.50;99.90;;;;;;5093189;28;20178;-75
2024/01/18 01:02:33;;;;;;;23.37;16.07;;;-0.40;99.90;;;;;;5090755;28;20182;-77
2024/01/18 01:04:59;;;;;;;27.97;18.57;;;-0.40;99.90;;;;;;5093254;28;20185;-76
2024/01/18 01:07:24;;;;;;;26.83;16.67;;;-0.40;99.90;;;;;;5091860;28;20185;-77
2024/01/18 01:09:50;;;;;;;25.17;17.03;;;-0.40;99.90;;;;;;5092344;28;20554;-76
2024/01/18 01:12:15;;;;;;;23.37;16.87;;;-0.40;99.90;;;;;;5091790;28;20554;-77
2024/01/18 01:14:41;;;;;;;23.80;17.57;;;-0.40;99.90;;;;;;5091589;28;20522;-77
2024/01/18 01:17:06;;;;;;;26.30;17.13;;;-0.40;99.90;;;;;;5091644;28;20166;-76
2024/01/18 01:19:32;;;;;;;21.13;15.60;;;-0.40;99.90;;;;;;5090679;28;20670;-77
2024/01/18 01:21:57;;;;;;;26.40;17.60;;;-0.40;99.90;;;;;;5091639;28;20209;-77
2024/01/18 01:24:23;;;;;;;28.13;16.47;;;-0.40;99.90;;;;;;5091753;28;20216;-77
2024/01/18 01:26:48;;;;;;;24.23;16.20;;;-0.40;99.90;;;;;;5092756;28;20181;-77
2024/01/18 01:29:15;;;;;;;27.33;17.50;;;-0.40;99.90;;;;;;5093244;28;20673;-76
2024/01/18 01:31:40;;;;;;;26.00;17.23;;;-0.40;99.90;;;;;;5092401;28;20227;-77
2024/01/18 01:34:06;;;;;;;24.03;16.43;;;-0.40;99.90;;;;;;5092652;28;20198;-77
2024/01/18 01:36:31;;;;;;;23.40;16.73;;;-0.50;99.90;;;;;;5091747;28;20636;-77
2024/01/18 01:38:57;;;;;;;27.07;17.10;;;-0.40;99.90;;;;;;5090024;28;20229;-77
2024/01/18 01:41:23;;;;;;;23.03;15.90;;;-0.50;99.90;;;;;;5092387;28;20649;-77
2024/01/18 01:43:58;;;;;;;27.23;16.90;;;-0.50;99.90;;;;;;5091662;28;20246;-77
2024/01/18 01:46:25;;;;;;;25.67;17.47;;;-0.50;99.90;;;;;;5092679;28;20273;-75
2024/01/18 01:48:51;;;;;;;23.73;16.73;;;-0.50;99.90;;;;;;5091870;28;20689;-76
2024/01/18 01:51:17;;;;;;;23.47;17.30;;;-0.50;99.90;;;;;;5092689;28;20173;-76
2024/01/18 01:53:42;;;;;;;25.53;17.43;;;-0.50;99.90;;;;;;5092379;28;20586;-76
2024/01/18 01:56:08;;;;;;;25.53;18.43;;;-0.50;99.90;;;;;;5092200;28;20200;-76
2024/01/18 01:58:34;;;;;;;28.60;18.23;;;-0.50;99.90;;;;;;5090396;28;20208;-77
2024/01/18 02:00:59;;;;;;;26.50;18.20;;;-0.50;99.90;;;;;;5092260;28;20530;-76
2024/01/18 02:03:25;;;;;;;25.27;16.93;;;-0.50;99.90;;;;;;5092248;28;20235;-76
2024/01/18 02:05:50;;;;;;;24.67;16.87;;;-0.50;99.90;;;;;;5092341;28;20668;-75
2024/01/18 02:08:16;;;;;;;26.70;17.97;;;-0.50;99.90;;;;;;5091411;28;20205;-77
2024/01/18 02:10:41;;;;;;;26.13;18.33;;;-0.50;99.90;;;;;;5091010;28;20242;-76
2024/01/18 02:13:07;;;;;;;26.73;18.43;;;-0.50;99.90;;;;;;5090007;28;20277;-77
2024/01/18 02:15:34;;;;;;;25.83;18.77;;;-0.50;99.90;;;;;;5092197;28;20208;-76
2024/01/18 02:18:00;;;;;;;25.37;18.07;;;-0.50;99.90;;;;;;5092210;28;20194;-76
2024/01/18 02:20:25;;;;;;;26.57;18.60;;;-0.50;99.90;;;;;;5091280;28;20642;-76
2024/01/18 02:22:52;;;;;;;28.30;17.83;;;-0.50;99.90;;;;;;5091421;28;20641;-76
2024/01/18 02:25:22;;;;;;;22.87;17.87;;;-0.50;99.90;;;;;;5090834;28;20186;-77
2024/01/18 02:27:48;;;;;;;25.60;18.17;;;-0.50;99.90;;;;;;5090933;28;20200;-77
2024/01/18 02:30:14;;;;;;;27.00;18.50;;;-0.50;99.90;;;;;;5092334;28;20170;-76
2024/01/18 02:32:39;;;;;;;31.37;19.83;;;-0.50;99.90;;;;;;5089420;28;20554;-76
2024/01/18 02:35:05;;;;;;;28.50;18.70;;;-0.50;99.90;;;;;;5090757;28;20646;-76
2024/01/18 02:37:32;;;;;;;24.80;17.90;;;-0.50;99.90;;;;;;5090726;28;20262;-77
2024/01/18 02:39:57;;;;;;;24.87;18.33;;;-0.50;99.90;;;;;;5092053;28;20239;-75
2024/01/18 02:42:23;;;;;;;30.50;19.37;;;-0.50;99.90;;;;;;5091414;28;20206;-77
2024/01/18 02:44:50;;;;;;;27.40;19.10;;;-0.50;99.90;;;;;;5090886;28;20182;-76
2024/01/18 02:47:15;;;;;;;27.20;19.07;;;-0.50;99.90;;;;;;5090778;28;20231;-77
2024/01/18 02:49:41;;;;;;;31.57;18.90;;;-0.50;99.90;;;;;;5092249;28;20190;-77
2024/01/18 02:52:06;;;;;;;26.40;18.37;;;-0.50;99.90;;;;;;5095883;28;20170;-76
2024/01/18 02:54:32;;;;;;;27.10;18.83;;;-0.50;99.90;;;;;;5095861;28;20189;-77
2024/01/18 02:56:57;;;;;;;25.97;17.77;;;-0.50;99.90;;;;;;5093964;28;20585;-77
2024/01/18 02:59:23;;;;;;;27.00;20.00;;;-0.50;99.90;;;;;;5095841;28;20208;-77
2024/01/18 03:01:48;;;;;;;27.57;18.93;;;-0.50;99.90;;;;;;5095909;28;20529;-77
2024/01/18 03:04:14;;;;;;;26.20;19.20;;;-0.50;99.90;;;;;;5094461;28;20180;-77
2024/01/18 03:06:39;;;;;;;31.13;19.67;;;-0.50;99.90;;;;;;5094856;28;20181;-77
2024/01/18 03:09:05;;;;;;;29.53;20.23;;;-0.60;99.90;;;;;;5095721;28;20204;-77
2024/01/18 03:11:30;;;;;;;33.13;21.23;;;-0.50;99.90;;;;;;5094228;28;20546;-77
2024/01/18 03:13:56;;;;;;;30.47;21.13;;;-0.50;99.90;;;;;;5095512;28;20245;-77
2024/01/18 03:16:22;;;;;;;32.87;19.63;;;-0.50;99.90;;;;;;5093164;28;20209;-77
2024/01/18 03:18:47;;;;;;;27.73;19.97;;;-0.50;99.90;;;;;;5094037;28;20198;-77
2024/01/18 03:21:13;;;;;;;29.40;20.13;;;-0.50;99.90;;;;;;5095662;28;20642;-77
2024/01/18 03:23:40;;;;;;;35.00;20.77;;;-0.50;99.90;;;;;;5095660;28;20258;-76
2024/01/18 03:26:05;;;;;;;29.03;20.50;;;-0.50;99.90;;;;;;5093934;28;20584;-76
2024/01/18 03:28:31;;;;;;;27.03;19.23;;;-0.50;99.90;;;;;;5093316;28;20263;-76
2024/01/18 03:30:57;;;;;;;28.37;18.33;;;-0.50;99.90;;;;;;5093559;28;20181;-76
2024/01/18 03:33:22;;;;;;;25.73;19.33;;;-0.50;99.90;;;;;;5094639;28;20194;-78
2024/01/18 03:35:48;;;;;;;24.83;17.73;;;-0.50;99.90;;;;;;5115753;28;20258;-76
2024/01/18 03:38:14;;;;;;;26.40;18.57;;;-0.50;99.90;;;;;;5098312;28;20201;-77
2024/01/18 03:40:39;;;;;;;26.63;18.30;;;-0.50;99.90;;;;;;5094770;28;20170;-76
2024/01/18 03:43:05;;;;;;;29.60;20.03;;;-0.50;99.90;;;;;;5093798;28;20656;-76
2024/01/18 03:45:31;;;;;;;30.73;20.47;;;-0.50;99.90;;;;;;5095168;28;20174;-77
2024/01/18 03:47:56;;;;;;;28.53;19.80;;;-0.50;99.90;;;;;;5093608;28;20264;-76
2024/01/18 03:50:22;;;;;;;25.23;18.53;;;-0.50;99.90;;;;;;5098705;28;20606;-77
2024/01/18 03:52:47;;;;;;;26.00;18.57;;;-0.50;99.90;;;;;;5097463;28;20217;-77
2024/01/18 03:55:13;;;;;;;26.53;19.27;;;-0.50;99.90;;;;;;5097425;28;20190;-77
2024/01/18 03:57:39;;;;;;;28.30;19.77;;;-0.50;99.90;;;;;;5099021;28;20193;-76
2024/01/18 04:00:05;;;;;;;27.50;20.50;;;-0.50;99.90;;;;;;5098807;28;20174;-77
2024/01/18 04:02:31;;;;;;;25.30;19.97;;;-0.50;99.90;;;;;;5097279;28;20167;-77
2024/01/18 04:04:56;;;;;;;28.43;20.47;;;-0.50;99.90;;;;;;5107830;28;20180;-76
2024/01/18 04:07:22;;;;;;;30.90;20.23;;;-0.60;99.90;;;;;;5104499;28;20316;-77
2024/01/18 04:09:48;;;;;;;31.23;20.77;;;-0.50;99.90;;;;;;5111178;28;20227;-76
2024/01/18 04:12:14;;;;;;;30.20;21.43;;;-0.60;99.90;;;;;;5114677;28;20623;-77
2024/01/18 04:14:43;;;;;;;31.97;21.90;;;-0.60;99.90;;;;;;5103657;27;20672;-77
2024/01/18 04:17:11;;;;;;;26.90;19.63;;;-0.60;99.90;;;;;;5092587;28;20178;-77
2024/01/18 04:19:38;;;;;;;30.70;20.53;;;-0.60;99.90;;;;;;5095512;28;20194;-77
2024/01/18 04:22:03;;;;;;;27.43;21.07;;;-0.60;99.90;;;;;;5096431;28;20169;-77
2024/01/18 04:24:29;;;;;;;30.63;20.03;;;-0.60;99.90;;;;;;5093773;28;20492;-76
2024/01/18 04:26:54;;;;;;;28.43;20.87;;;-0.60;99.90;;;;;;5093419;28;20531;-77
2024/01/18 04:29:20;;;;;;;32.93;20.30;;;-0.60;99.90;;;;;;5098720;28;20200;-76
2024/01/18 04:31:46;;;;;;;28.77;21.03;;;-0.60;99.90;;;;;;5101868;28;20575;-77
2024/01/18 04:34:12;;;;;;;32.13;21.10;;;-0.60;99.90;;;;;;5093947;28;20185;-77
2024/01/18 04:36:38;;;;;;;34.27;21.50;;;-0.60;99.90;;;;;;5105210;28;20245;-76
2024/01/18 04:39:03;;;;;;;32.23;21.30;;;-0.60;99.90;;;;;;5114019;28;20249;-77
2024/01/18 04:41:29;;;;;;;30.07;21.07;;;-0.60;99.90;;;;;;5104703;28;20182;-77
2024/01/18 04:43:54;;;;;;;31.77;20.77;;;-0.60;99.90;;;;;;5092539;28;20189;-76
2024/01/18 04:46:20;;;;;;;29.40;21.23;;;-0.60;99.90;;;;;;5093871;28;20173;-76
2024/01/18 04:48:45;;;;;;;29.27;21.43;;;-0.60;99.90;;;;;;5093792;28;20191;-76
2024/01/18 04:51:11;;;;;;;27.83;20.80;;;-0.60;99.90;;;;;;5092816;28;20222;-77
2024/01/18 04:53:37;;;;;;;26.30;20.03;;;-0.70;99.90;;;;;;5103584;28;20188;-77
2024/01/18 04:56:03;;;;;;;30.80;21.20;;;-0.60;99.90;;;;;;5113792;28;20197;-77
2024/01/18 04:58:29;;;;;;;29.57;20.60;;;-0.70;99.90;;;;;;5113922;28;20193;-77
2024/01/18 05:00:54;;;;;;;34.23;21.07;;;-0.70;99.90;;;;;;5111136;28;20176;-77
2024/01/18 05:03:20;;;;;;;28.90;20.47;;;-0.70;99.90;;;;;;5107233;28;20273;-77
2024/01/18 05:05:45;;;;;;;28.20;20.73;;;-0.70;99.90;;;;;;5099391;28;20235;-75
2024/01/18 05:08:11;;;;;;;28.90;20.83;;;-0.70;99.90;;;;;;5093025;28;20578;-76
2024/01/18 05:10:36;;;;;;;30.13;21.23;;;-0.70;99.90;;;;;;5093039;28;20640;-76
2024/01/18 05:13:02;;;;;;;31.57;21.83;;;-0.70;99.90;;;;;;5090880;28;20227;-76
2024/01/18 05:15:27;;;;;;;27.83;21.37;;;-0.70;99.90;;;;;;5091875;28;20213;-77
2024/01/18 05:17:54;;;;;;;28.07;20.80;;;-0.70;99.90;;;;;;5092688;28;20660;-78
2024/01/18 05:20:19;;;;;;;31.80;21.07;;;-0.80;99.90;;;;;;5091417;28;20170;-76
2024/01/18 05:22:45;;;;;;;34.27;20.17;;;-0.80;99.90;;;;;;5092103;28;20238;-77
2024/01/18 05:25:11;;;;;;;29.23;21.30;;;-0.80;99.90;;;;;;5091472;28;20554;-77
2024/01/18 05:27:36;;;;;;;27.67;20.23;;;-0.80;99.90;;;;;;5093006;28;20245;-77
2024/01/18 05:30:04;;;;;;;26.87;19.30;;;-0.80;99.90;;;;;;5099955;28;20323;-77
2024/01/18 05:32:30;;;;;;;30.23;20.63;;;-0.80;99.90;;;;;;5096736;28;20563;-77
2024/01/18 05:34:55;;;;;;;28.17;19.53;;;-0.80;99.90;;;;;;5100248;28;20186;-77
2024/01/18 05:37:22;;;;;;;30.43;20.87;;;-0.80;99.90;;;;;;5112062;28;20214;-77
2024/01/18 05:39:53;;;;;;;30.60;21.83;;;-0.80;99.90;;;;;;5111778;28;20340;-77
2024/01/18 05:42:19;;;;;;;31.30;21.30;;;-0.80;99.90;;;;;;5099828;28;20181;-77
2024/01/18 05:44:48;;;;;;;29.70;21.33;;;-0.90;99.90;;;;;;5095748;28;20264;-77
2024/01/18 05:47:13;;;;;;;27.10;20.93;;;-0.80;99.90;;;;;;5100917;28;20661;-77
2024/01/18 05:49:39;;;;;;;28.07;20.27;;;-0.90;99.90;;;;;;5091914;28;20220;-76
2024/01/18 05:52:06;;;;;;;30.13;20.83;;;-0.90;99.90;;;;;;5092878;28;20170;-77
2024/01/18 05:54:33;;;;;;;29.03;20.63;;;-0.90;99.90;;;;;;5093670;28;20684;-77
2024/01/18 05:57:02;;;;;;;28.47;20.87;;;-0.90;99.90;;;;;;5101591;28;20238;-77
2024/01/18 05:59:28;;;;;;;36.03;21.90;;;-0.90;99.90;;;;;;5092789;28;20250;-77
2024/01/18 06:01:54;;;;;;;26.83;19.53;;;-1.00;99.90;;;;;;5094299;28;20174;-77
2024/01/18 06:04:19;;;;;;;29.80;21.43;;;-0.90;99.90;;;;;;5102235;28;20173;-77
2024/01/18 06:06:45;;;;;;;30.13;21.77;;;-0.90;99.90;;;;;;5110191;28;20264;-78
2024/01/18 06:09:14;;;;;;;35.60;21.43;;;-1.00;99.90;;;;;;5094260;28;20204;-78
2024/01/18 06:11:40;;;;;;;32.67;22.00;;;-1.00;99.90;;;;;;5094190;28;20703;-77
2024/01/18 06:14:05;;;;;;;29.97;20.77;;;-1.00;99.90;;;;;;5094397;28;20177;-79
2024/01/18 06:16:31;;;;;;;31.27;20.77;;;-1.00;99.90;;;;;;5091614;28;20180;-79
2024/01/18 06:18:56;;;;;;;27.87;20.37;;;-1.00;99.90;;;;;;5093824;28;20238;-78
2024/01/18 06:21:22;;;;;;;31.07;21.23;;;-1.00;99.90;;;;;;5091856;28;20227;-78
2024/01/18 06:23:49;;;;;;;29.33;20.70;;;-1.00;99.90;;;;;;5093027;28;20567;-77
2024/01/18 06:26:14;;;;;;;31.37;20.90;;;-1.00;99.90;;;;;;5076062;28;20170;-77
2024/01/18 06:28:40;;;;;;;28.30;20.30;;;-1.00;99.90;;;;;;5094440;28;20220;-77
2024/01/18 06:31:05;;;;;;;27.10;20.37;;;-1.10;99.90;;;;;;5096509;28;20184;-76
2024/01/18 06:33:31;;;;;;;30.50;21.70;;;-1.10;99.90;;;;;;5095549;28;20197;-77
2024/01/18 06:35:57;;;;;;;28.03;21.43;;;-1.10;99.90;;;;;;5095403;28;20208;-76
2024/01/18 06:38:22;;;;;;;30.87;21.03;;;-1.10;99.90;;;;;;5094392;28;20315;-76
2024/01/18 06:40:48;;;;;;;27.83;19.73;;;-1.10;99.90;;;;;;5096627;28;20180;-77
2024/01/18 06:43:14;;;;;;;28.50;20.90;;;-1.30;99.90;;;;;;5097013;28;20193;-76
2024/01/18 06:45:40;;;;;;;27.83;19.73;;;-1.30;99.90;;;;;;5097601;28;20256;-77
2024/01/18 06:48:06;;;;;;;29.43;19.00;;;-1.30;99.90;;;;;;5095046;28;20232;-77
2024/01/18 06:50:32;;;;;;;35.37;20.07;;;-1.40;99.90;;;;;;5098558;28;20180;-78
2024/01/18 06:52:59;;;;;;;26.93;20.03;;;-1.50;99.90;;;;;;5097393;28;20192;-77
2024/01/18 06:55:25;;;;;;;29.53;20.83;;;-1.50;99.90;;;;;;5096285;28;20198;-77
2024/01/18 06:57:51;;;;;;;36.93;21.60;;;-1.50;99.90;;;;;;5095338;28;20181;-76
2024/01/18 07:00:23;;;;;;;28.87;20.17;;;-1.50;99.90;;;;;;5095657;28;20590;-77
2024/01/18 07:02:50;;;;;;;31.53;20.70;;;-1.50;99.90;;;;;;5096614;28;20158;-77
2024/01/18 07:05:16;;;;;;;30.17;20.57;;;-1.60;99.90;;;;;;5095583;28;20216;-77
2024/01/18 07:07:42;;;;;;;28.17;19.20;;;-1.60;99.90;;;;;;5095918;28;20186;-77
2024/01/18 07:10:08;;;;;;;30.50;19.20;;;-1.60;99.90;;;;;;5095264;28;20668;-76
2024/01/18 07:12:33;;;;;;;33.13;21.20;;;-1.70;99.90;;;;;;5097204;28;20174;-77
2024/01/18 07:14:59;;;;;;;29.17;20.33;;;-1.70;99.90;;;;;;5095043;28;20204;-77
2024/01/18 07:17:29;;;;;;;28.57;20.20;;;-1.70;99.90;;;;;;5094436;28;20192;-77
2024/01/18 07:19:56;;;;;;;29.93;20.33;;;-1.80;99.90;;;;;;5095055;28;20197;-77
2024/01/18 07:22:22;;;;;;;28.50;21.03;;;-1.70;99.90;;;;;;5096595;28;20226;-77
2024/01/18 07:24:48;;;;;;;30.20;20.07;;;-1.80;99.90;;;;;;5095933;28;20173;-77
2024/01/18 07:27:13;;;;;;;30.73;19.90;;;-1.90;99.90;;;;;;5095390;28;20560;-77
2024/01/18 07:29:39;;;;;;;29.80;19.13;;;-1.90;99.90;;;;;;5096527;28;20279;-77
2024/01/18 07:32:04;;;;;;;31.73;20.93;;;-2.00;99.90;;;;;;5096622;28;20231;-77
2024/01/18 07:34:35;;;;;;;30.67;18.83;;;-2.00;99.90;;;;;;5094595;28;20254;-77
2024/01/18 07:37:01;;;;;;;25.87;19.47;;;-2.00;99.90;;;;;;5094382;28;20260;-77
2024/01/18 07:39:27;;;;;;;28.43;18.77;;;-2.10;99.90;;;;;;5095914;28;20280;-77
2024/01/18 07:41:53;;;;;;;27.20;19.53;;;-2.10;99.90;;;;;;5095650;28;20617;-77
2024/01/18 07:44:19;;;;;;;27.73;19.93;;;-2.10;99.90;;;;;;5093960;28;20173;-77
2024/01/18 07:46:44;;;;;;;28.97;19.53;;;-2.20;99.90;;;;;;5094758;28;20552;-77
2024/01/18 07:49:10;;;;;;;29.07;19.63;;;-2.20;99.90;;;;;;5093855;28;20242;-76
2024/01/18 07:51:35;;;;;;;28.83;20.13;;;-2.20;99.90;;;;;;5093632;28;20543;-77
2024/01/18 07:54:01;;;;;;;28.40;18.67;;;-2.30;99.90;;;;;;5095084;28;20588;-76
2024/01/18 07:56:27;;;;;;;27.53;18.40;;;-2.30;99.90;;;;;;5094074;28;20210;-77
2024/01/18 07:58:53;;;;;;;32.30;18.63;;;-2.40;99.90;;;;;;5095083;28;20195;-77
2024/01/18 08:01:19;;;;;;;28.80;20.13;;;-2.40;99.90;;;;;;5095182;28;20176;-77
2024/01/18 08:03:45;;;;;;;25.57;17.43;;;-2.50;99.90;;;;;;5093644;28;20231;-76
2024/01/18 08:06:11;;;;;;;29.17;19.27;;;-2.50;99.90;;;;;;5094131;28;20239;-77
2024/01/18 08:08:39;;;;;;;26.07;17.43;;;-2.40;99.90;;;;;;5075219;28;20198;-76
2024/01/18 08:11:05;;;;;;;28.87;18.40;;;-2.60;99.90;;;;;;5078764;28;20256;-77
2024/01/18 08:13:30;;;;;;;28.93;17.90;;;-2.50;99.90;;;;;;5079912;28;20198;-76
2024/01/18 08:15:57;;;;;;;29.20;18.47;;;-2.60;99.90;;;;;;5079472;28;20581;-77
2024/01/18 08:18:23;;;;;;;26.13;18.40;;;-2.60;99.90;;;;;;5081191;28;20202;-77
2024/01/18 08:20:50;;;;;;;27.27;18.20;;;-2.60;99.90;;;;;;5075468;28;20245;-76
2024/01/18 08:23:17;;;;;;;24.77;18.27;;;-2.60;99.90;;;;;;5072863;28;20190;-76
2024/01/18 08:25:42;;;;;;;27.67;18.70;;;-2.70;99.90;;;;;;5074177;28;20262;-77
2024/01/18 08:28:10;;;;;;;27.23;17.60;;;-2.70;99.90;;;;;;5090156;28;20754;-77
2024/01/18 08:30:36;;;;;;;25.40;18.00;;;-2.70;99.90;;;;;;5094471;28;20251;-77
2024/01/18 08:33:01;;;;;;;28.07;19.03;;;-2.70;99.90;;;;;;5094200;28;20235;-75
2024/01/18 08:35:27;;;;;;;27.50;18.53;;;-2.70;99.90;;;;;;5094687;28;20210;-77
2024/01/18 08:37:53;;;;;;;32.43;18.67;;;-2.70;99.90;;;;;;5092409;28;20599;-77
2024/01/18 08:40:19;;;;;;;30.50;17.53;;;-2.70;99.90;;;;;;5094211;28;20216;-77
2024/01/18 08:42:45;;;;;;;26.53;19.40;;;-2.70;99.90;;;;;;5093089;28;20181;-77
2024/01/18 08:45:12;;;;;;;25.80;18.70;;;-2.70;99.90;;;;;;5094286;28;20169;-77
2024/01/18 08:47:38;;;;;;;28.73;19.60;;;-2.70;99.90;;;;;;5091847;28;20184;-77
2024/01/18 08:50:04;;;;;;;30.73;19.33;;;-2.60;99.90;;;;;;5093974;28;20197;-77
2024/01/18 08:52:30;;;;;;;25.53;19.73;;;-2.60;99.90;;;;;;5093165;28;20549;-77
2024/01/18 08:54:55;;;;;;;28.90;19.27;;;-2.60;99.90;;;;;;5092824;28;20197;-76
2024/01/18 08:57:21;;;;;;;30.50;19.47;;;-2.60;99.90;;;;;;5093151;28;20193;-77
2024/01/18 08:59:46;;;;;;;28.70;18.83;;;-2.60;99.90;;;;;;5091260;28;20236;-76
2024/01/18 09:02:13;;;;;;;32.27;19.37;;;-2.50;99.90;;;;;;5092025;28;20193;-77
2024/01/18 09:04:39;;;;;;;29.50;20.63;;;-2.50;99.90;;;;;;5094117;28;20189;-77
2024/01/18 09:07:04;;;;;;;30.17;20.77;;;-2.50;99.90;;;;;;5092410;28;20184;-77
2024/01/18 09:09:30;;;;;;;28.87;20.27;;;-2.50;99.90;;;;;;5092654;28;20208;-77
2024/01/18 09:11:56;;;;;;;32.97;20.50;;;-2.40;99.90;;;;;;5091627;28;20193;-77
2024/01/18 09:14:23;;;;;;;29.70;20.20;;;-2.40;99.90;;;;;;5091796;28;20193;-77
2024/01/18 09:16:49;;;;;;;30.77;20.93;;;-2.40;99.90;;;;;;5093095;28;20216;-77
2024/01/18 09:19:14;;;;;;;28.87;20.27;;;-2.30;99.90;;;;;;5093171;28;20203;-77
2024/01/18 09:21:44;;;;;;;31.73;21.23;;;-2.30;99.90;;;;;;5094274;28;20176;-77
2024/01/18 09:24:10;;;;;;;31.50;19.50;;;-2.30;99.90;;;;;;5093186;28;20180;-77
2024/01/18 09:26:36;;;;;;;27.90;19.63;;;-2.20;99.90;;;;;;5094133;28;20269;-77
2024/01/18 09:29:02;;;;;;;32.67;21.53;;;-2.10;99.90;;;;;;5092710;28;20626;-77
2024/01/18 09:31:28;;;;;;;28.50;20.77;;;-2.10;99.90;;;;;;5091504;28;20217;-77
2024/01/18 09:33:54;;;;;;;28.40;20.53;;;-2.10;99.90;;;;;;5092987;28;20194;-77
2024/01/18 09:36:19;;;;;;;31.00;21.40;;;-2.00;99.90;;;;;;5091725;28;20216;-76
2024/01/18 09:38:46;;;;;;;36.17;23.13;;;-2.00;99.90;;;;;;5092804;28;20667;-76
2024/01/18 09:41:18;;;;;;;32.33;24.33;;;-1.90;99.90;;;;;;5091865;28;20181;-77
2024/01/18 09:43:44;;;;;;;38.67;24.53;;;-1.80;99.90;;;;;;5091756;28;20232;-77
2024/01/18 09:46:14;;;;;;;35.53;23.60;;;-1.70;99.90;;;;;;5091539;28;20188;-76
2024/01/18 09:48:41;;;;;;;42.03;25.97;;;-1.70;99.90;;;;;;5091542;28;20300;-77
2024/01/18 09:51:09;;;;;;;40.43;27.70;;;-1.50;99.90;;;;;;5092181;28;20185;-75
2024/01/18 09:53:36;;;;;;;38.43;26.10;;;-1.40;99.90;;;;;;5092133;28;20175;-76
2024/01/18 09:56:36;;;;;;;38.33;25.27;;;-1.30;99.90;;;;;;5092815;28;20201;-76
2024/01/18 09:59:01;;;;;;;39.47;24.93;;;-1.20;99.90;;;;;;5079986;28;20209;-77
2024/01/18 10:01:27;;;;;;;38.17;26.10;;;-1.00;99.90;;;;;;5090857;28;20248;-77
2024/01/18 10:03:53;;;;;;;39.77;27.20;;;-0.90;99.90;;;;;;5092705;28;20178;-77
2024/01/18 10:06:19;;;;;;;40.23;28.33;;;-0.80;99.90;;;;;;5092855;28;20185;-76
2024/01/18 10:08:45;;;;;;;40.87;27.37;;;-0.80;99.90;;;;;;5092725;28;20197;-77
2024/01/18 10:11:11;;;;;;;39.93;26.90;;;-0.70;99.90;;;;;;5090293;28;20172;-76
2024/01/18 10:13:56;;;;;;;39.87;24.70;;;-0.60;99.90;;;;;;5092151;28;20322;-76
2024/01/18 10:16:40;;;;;;;36.87;25.40;;;-0.50;99.90;;;;;;5090739;28;20206;-77
2024/01/18 10:19:14;;;;;;;40.60;24.43;;;-0.40;99.90;;;;;;5091168;28;20197;-76
2024/01/18 10:21:40;;;;;;;41.77;23.07;;;-0.30;99.90;;;;;;5091263;28;20720;-77
2024/01/18 10:24:13;;;;;;;34.50;20.87;;;-0.20;99.90;;;;;;5101822;28;20265;-78
2024/01/18 10:26:40;;;;;;;38.43;21.80;;;0.00;99.90;;;;;;5098585;28;20621;-77
2024/01/18 10:29:06;;;;;;;36.93;22.10;;;0.00;99.90;;;;;;5092782;28;20689;-77
2024/01/18 10:31:32;;;;;;;35.53;20.47;;;0.10;99.90;;;;;;5090286;28;20182;-76
2024/01/18 10:33:58;;;;;;;34.67;21.53;;;0.10;99.90;;;;;;5091069;28;20197;-77
2024/01/18 10:36:23;;;;;;;29.83;19.63;;;0.20;99.90;;;;;;5090764;28;20198;-77
2024/01/18 10:38:49;;;;;;;27.03;17.90;;;0.30;99.90;;;;;;5092187;28;20198;-77
2024/01/18 10:41:19;;;;;;;29.80;18.40;;;0.30;99.90;;;;;;5090270;28;20182;-77
2024/01/18 10:43:44;;;;;;;25.27;16.10;;;0.40;99.90;;;;;;5091095;28;20196;-77
2024/01/18 10:46:11;;;;;;;26.10;15.97;;;0.50;99.90;;;;;;5090761;28;20641;-76
2024/01/18 10:48:36;;;;;;;23.13;14.27;;;0.50;99.90;;;;;;5090569;28;20700;-77
2024/01/18 10:51:04;;;;;;;25.27;13.63;;;0.60;99.90;;;;;;5090775;28;20239;-77
2024/01/18 10:53:33;;;;;;;18.20;13.13;;;0.70;99.90;;;;;;5090583;28;20216;-77
2024/01/18 10:55:59;;;;;;;23.87;13.00;;;0.80;99.90;;;;;;5090697;28;20294;-77
2024/01/18 10:58:25;;;;;;;19.60;12.17;;;0.80;99.90;;;;;;5091897;28;20191;-77
2024/01/18 11:00:52;;;;;;;20.27;12.37;;;0.90;99.90;;;;;;5090221;28;20167;-76
2024/01/18 11:03:17;;;;;;;18.73;10.87;;;1.00;99.90;;;;;;5092154;28;20173;-76
2024/01/18 11:05:50;;;;;;;26.37;11.80;;;1.00;99.90;;;;;;5092080;28;20694;-77
2024/01/18 11:08:20;;;;;;;20.63;11.13;;;1.10;99.90;;;;;;5090525;28;20693;-77
2024/01/18 11:10:46;;;;;;;19.27;11.17;;;1.20;99.90;;;;;;5093174;28;20166;-77
2024/01/18 11:13:15;;;;;;;21.33;10.33;;;1.30;99.90;;;;;;5095893;28;20181;-77
2024/01/18 11:15:42;;;;;;;12.33;7.67;;;1.40;99.90;;;;;;5096579;28;20194;-76
2024/01/18 11:18:09;;;;;;;16.60;8.13;;;1.40;99.90;;;;;;5099315;28;20186;-77
2024/01/18 11:20:57;;;;;;;15.20;8.50;;;1.50;99.90;;;;;;5098189;28;20175;-77
2024/01/18 11:23:26;;;;;;;10.60;6.43;;;1.50;99.90;;;;;;5097804;28;20669;-76
2024/01/18 11:25:52;;;;;;;14.90;6.60;;;1.60;99.90;;;;;;5098407;28;20181;-77
2024/01/18 11:28:26;;;;;;;11.80;5.73;;;1.70;99.90;;;;;;5097328;28;20198;-77
2024/01/18 11:30:53;;;;;;;9.30;5.53;;;1.60;99.90;;;;;;5096869;28;20185;-76
2024/01/18 11:33:20;;;;;;;13.23;6.00;;;1.70;99.90;;;;;;5097932;28;20190;-77
2024/01/18 11:35:47;;;;;;;12.57;6.20;;;1.70;99.90;;;;;;5097847;28;20198;-75
2024/01/18 11:38:19;;;;;;;16.33;5.40;;;1.70;99.90;;;;;;5098090;28;20631;-77
2024/01/18 11:40:46;;;;;;;10.03;5.53;;;1.80;99.90;;;;;;5097188;28;20174;-77
2024/01/18 11:43:12;;;;;;;13.60;5.40;;;1.80;99.90;;;;;;5100324;28;20194;-77
2024/01/18 11:45:38;;;;;;;15.57;5.43;;;1.80;99.90;;;;;;5098662;28;20195;-77
2024/01/18 11:48:04;;;;;;;13.73;5.93;;;1.90;99.90;;;;;;5098703;28;20526;-77
2024/01/18 11:50:30;;;;;;;16.93;5.57;;;1.90;99.90;;;;;;5101626;28;20649;-77
2024/01/18 11:52:56;;;;;;;10.53;4.80;;;2.00;99.90;;;;;;5101120;28;20174;-77
2024/01/18 11:55:24;;;;;;;10.13;5.13;;;1.90;99.90;;;;;;5100724;28;20201;-77
2024/01/18 11:57:52;;;;;;;10.10;4.43;;;1.90;99.90;;;;;;5098512;28;20174;-77
2024/01/18 12:00:19;;;;;;;7.70;4.50;;;2.00;99.90;;;;;;5100285;28;20198;-77
2024/01/18 12:02:44;;;;;;;9.03;4.37;;;2.00;99.90;;;;;;5098874;28;20656;-77
2024/01/18 12:05:10;;;;;;;7.40;4.20;;;2.00;99.90;;;;;;5098070;28;20174;-77
2024/01/18 12:07:38;;;;;;;9.57;3.83;;;2.10;99.90;;;;;;5098988;28;20186;-77
2024/01/18 12:10:06;;;;;;;8.40;4.30;;;2.10;99.90;;;;;;5097366;28;20274;-77
2024/01/18 12:12:31;;;;;;;5.27;3.33;;;2.20;99.90;;;;;;5095682;28;20182;-77
2024/01/18 12:14:57;;;;;;;9.73;4.13;;;2.20;99.90;;;;;;5095411;28;20213;-77
2024/01/18 12:17:23;;;;;;;9.00;4.27;;;2.30;99.90;;;;;;5094489;28;20193;-77
2024/01/18 12:19:48;;;;;;;6.53;3.50;;;2.30;99.90;;;;;;5093913;28;20209;-77
2024/01/18 12:22:18;;;;;;;6.37;3.50;;;2.30;99.90;;;;;;5093368;28;20189;-77
2024/01/18 12:24:49;;;;;;;8.50;4.70;;;2.40;99.90;;;;;;5095381;28;20180;-77
2024/01/18 12:27:15;;;;;;;8.37;3.30;;;2.40;99.90;;;;;;5092854;28;20560;-76